sensor_id;sensor_type;location;lat;lon;timestamp;P1;durP1;ratioP1;P2;durP2;ratioP2
11998;SDS011;40817;51.520;9.954;2023-05-10T00:01:25;3.90;;;2.15;;
11998;SDS011;40817;51.520;9.954;2023-05-10T00:03:52;3.40;;;2.10;;
11998;SDS011;40817;51.520;9.954;2023-05-10T00:06:21;7.60;;;2.22;;
11998;SDS011;40817;51.520;9.954;2023-05-10T00:08:49;3.25;;;2.35;;
11998;SDS011;40817;51.520;9.954;2023-05-10T00:11:16;2.60;;;2.00;;
11998;SDS011;40817;51.520;9.954;2023-05-10T00:13:44;7.00;;;2.45;;
11998;SDS011;40817;51.520;9.954;2023-05-10T00:16:11;5.35;;;2.28;;
11998;SDS011;40817;51.520;9.954;2023-05-10T00:18:39;4.90;;;2.58;;
11998;SDS011;40817;51.520;9.954;2023-05-10T00:21:06;4.35;;;2.42;;
11998;SDS011;40817;51.520;9.954;2023-05-10T00:23:35;5.72;;;2.65;;
11998;SDS011;40817;51.520;9.954;2023-05-10T00:26:03;5.03;;;2.28;;
11998;SDS011;40817;51.520;9.954;2023-05-10T00:28:31;3.60;;;2.28;;
11998;SDS011;40817;51.520;9.954;2023-05-10T00:30:58;3.78;;;2.00;;
11998;SDS011;40817;51.520;9.954;2023-05-10T00:33:26;3.63;;;2.20;;
11998;SDS011;40817;51.520;9.954;2023-05-10T00:35:53;4.20;;;2.55;;
11998;SDS011;40817;51.520;9.954;2023-05-10T00:38:21;5.60;;;2.50;;
11998;SDS011;40817;51.520;9.954;2023-05-10T00:40:50;5.72;;;2.40;;
11998;SDS011;40817;51.520;9.954;2023-05-10T00:43:17;4.82;;;2.50;;
11998;SDS011;40817;51.520;9.954;2023-05-10T00:45:45;4.03;;;2.00;;
11998;SDS011;40817;51.520;9.954;2023-05-10T00:48:13;4.32;;;2.17;;
11998;SDS011;40817;51.520;9.954;2023-05-10T00:50:40;3.05;;;2.30;;
11998;SDS011;40817;51.520;9.954;2023-05-10T00:53:08;3.78;;;2.13;;
11998;SDS011;40817;51.520;9.954;2023-05-10T00:55:36;4.63;;;2.70;;
11998;SDS011;40817;51.520;9.954;2023-05-10T00:58:05;5.10;;;2.40;;
11998;SDS011;40817;51.520;9.954;2023-05-10T01:00:33;4.75;;;2.47;;
11998;SDS011;40817;51.520;9.954;2023-05-10T01:03:02;4.20;;;2.10;;
11998;SDS011;40817;51.520;9.954;2023-05-10T01:05:30;4.85;;;2.38;;
11998;SDS011;40817;51.520;9.954;2023-05-10T01:07:57;5.35;;;2.10;;
11998;SDS011;40817;51.520;9.954;2023-05-10T01:10:25;3.70;;;1.90;;
11998;SDS011;40817;51.520;9.954;2023-05-10T01:12:53;5.47;;;2.47;;
11998;SDS011;40817;51.520;9.954;2023-05-10T01:15:22;4.85;;;2.17;;
11998;SDS011;40817;51.520;9.954;2023-05-10T01:17:50;4.55;;;2.35;;
11998;SDS011;40817;51.520;9.954;2023-05-10T01:20:19;6.43;;;2.70;;
11998;SDS011;40817;51.520;9.954;2023-05-10T01:22:59;4.72;;;2.50;;
11998;SDS011;40817;51.520;9.954;2023-05-10T01:26:20;4.32;;;2.60;;
11998;SDS011;40817;51.520;9.954;2023-05-10T01:33:28;4.70;;;2.40;;
11998;SDS011;40817;51.520;9.954;2023-05-10T01:36:03;4.53;;;2.20;;
11998;SDS011;40817;51.520;9.954;2023-05-10T01:38:38;5.68;;;2.65;;
11998;SDS011;40817;51.520;9.954;2023-05-10T01:41:17;3.92;;;2.20;;
11998;SDS011;40817;51.520;9.954;2023-05-10T01:43:53;3.57;;;2.10;;
11998;SDS011;40817;51.520;9.954;2023-05-10T01:46:30;7.00;;;2.53;;
11998;SDS011;40817;51.520;9.954;2023-05-10T01:49:06;3.45;;;2.45;;
11998;SDS011;40817;51.520;9.954;2023-05-10T01:51:39;4.28;;;2.53;;
11998;SDS011;40817;51.520;9.954;2023-05-10T01:54:13;5.05;;;2.00;;
11998;SDS011;40817;51.520;9.954;2023-05-10T01:56:43;8.40;;;2.47;;
11998;SDS011;40817;51.520;9.954;2023-05-10T01:59:15;4.55;;;2.45;;
11998;SDS011;40817;51.520;9.954;2023-05-10T02:01:46;5.88;;;2.45;;
11998;SDS011;40817;51.520;9.954;2023-05-10T02:04:16;6.45;;;2.20;;
11998;SDS011;40817;51.520;9.954;2023-05-10T02:06:45;3.17;;;2.40;;
11998;SDS011;40817;51.520;9.954;2023-05-10T02:09:14;4.57;;;2.35;;
11998;SDS011;40817;51.520;9.954;2023-05-10T02:11:44;5.55;;;2.60;;
11998;SDS011;40817;51.520;9.954;2023-05-10T02:14:14;3.05;;;2.38;;
11998;SDS011;40817;51.520;9.954;2023-05-10T02:16:44;4.00;;;2.25;;
11998;SDS011;40817;51.520;9.954;2023-05-10T02:19:14;3.78;;;2.53;;
11998;SDS011;40817;51.520;9.954;2023-05-10T02:21:45;3.58;;;2.40;;
11998;SDS011;40817;51.520;9.954;2023-05-10T02:24:13;4.05;;;2.72;;
11998;SDS011;40817;51.520;9.954;2023-05-10T02:26:42;5.28;;;2.85;;
11998;SDS011;40817;51.520;9.954;2023-05-10T02:29:11;5.38;;;2.38;;
11998;SDS011;40817;51.520;9.954;2023-05-10T02:31:40;3.45;;;2.30;;
11998;SDS011;40817;51.520;9.954;2023-05-10T02:34:08;7.30;;;2.33;;
11998;SDS011;40817;51.520;9.954;2023-05-10T02:36:39;4.85;;;2.63;;
11998;SDS011;40817;51.520;9.954;2023-05-10T02:39:07;4.15;;;2.58;;
11998;SDS011;40817;51.520;9.954;2023-05-10T02:41:38;3.30;;;2.40;;
11998;SDS011;40817;51.520;9.954;2023-05-10T02:44:08;4.40;;;2.38;;
11998;SDS011;40817;51.520;9.954;2023-05-10T02:46:37;5.22;;;2.65;;
11998;SDS011;40817;51.520;9.954;2023-05-10T02:49:19;4.90;;;2.55;;
11998;SDS011;40817;51.520;9.954;2023-05-10T02:51:49;3.85;;;2.60;;
11998;SDS011;40817;51.520;9.954;2023-05-10T02:54:24;4.18;;;2.42;;
11998;SDS011;40817;51.520;9.954;2023-05-10T02:56:58;3.75;;;2.65;;
11998;SDS011;40817;51.520;9.954;2023-05-10T02:59:30;4.43;;;2.30;;
11998;SDS011;40817;51.520;9.954;2023-05-10T03:01:58;4.35;;;2.58;;
11998;SDS011;40817;51.520;9.954;2023-05-10T03:04:46;5.53;;;2.65;;
11998;SDS011;40817;51.520;9.954;2023-05-10T03:07:34;5.68;;;2.90;;
11998;SDS011;40817;51.520;9.954;2023-05-10T03:10:14;6.07;;;2.95;;
11998;SDS011;40817;51.520;9.954;2023-05-10T03:12:46;4.95;;;3.00;;
11998;SDS011;40817;51.520;9.954;2023-05-10T03:15:34;3.10;;;2.45;;
11998;SDS011;40817;51.520;9.954;2023-05-10T03:18:15;5.60;;;2.85;;
11998;SDS011;40817;51.520;9.954;2023-05-10T03:20:49;3.75;;;2.90;;
11998;SDS011;40817;51.520;9.954;2023-05-10T03:23:25;5.00;;;2.72;;
11998;SDS011;40817;51.520;9.954;2023-05-10T03:26:00;5.57;;;3.08;;
11998;SDS011;40817;51.520;9.954;2023-05-10T03:28:29;6.13;;;3.35;;
11998;SDS011;40817;51.520;9.954;2023-05-10T03:30:58;3.67;;;2.90;;
11998;SDS011;40817;51.520;9.954;2023-05-10T03:33:27;5.57;;;3.03;;
11998;SDS011;40817;51.520;9.954;2023-05-10T03:35:55;4.65;;;3.10;;
11998;SDS011;40817;51.520;9.954;2023-05-10T03:38:24;5.60;;;3.45;;
11998;SDS011;40817;51.520;9.954;2023-05-10T03:40:51;5.15;;;3.60;;
11998;SDS011;40817;51.520;9.954;2023-05-10T03:43:19;5.85;;;3.20;;
11998;SDS011;40817;51.520;9.954;2023-05-10T03:45:46;5.07;;;3.25;;
11998;SDS011;40817;51.520;9.954;2023-05-10T03:48:14;5.22;;;3.70;;
11998;SDS011;40817;51.520;9.954;2023-05-10T03:50:41;6.25;;;3.63;;
11998;SDS011;40817;51.520;9.954;2023-05-10T03:53:09;3.58;;;3.20;;
11998;SDS011;40817;51.520;9.954;2023-05-10T03:55:38;5.78;;;3.63;;
11998;SDS011;40817;51.520;9.954;2023-05-10T03:58:06;5.25;;;3.35;;
11998;SDS011;40817;51.520;9.954;2023-05-10T04:00:37;5.85;;;3.83;;
11998;SDS011;40817;51.520;9.954;2023-05-10T04:03:09;5.18;;;4.00;;
11998;SDS011;40817;51.520;9.954;2023-05-10T04:05:37;4.75;;;3.65;;
11998;SDS011;40817;51.520;9.954;2023-05-10T04:08:04;5.88;;;4.05;;
11998;SDS011;40817;51.520;9.954;2023-05-10T04:10:33;5.47;;;4.07;;
11998;SDS011;40817;51.520;9.954;2023-05-10T04:13:02;5.95;;;3.78;;
11998;SDS011;40817;51.520;9.954;2023-05-10T04:15:29;5.10;;;4.18;;
11998;SDS011;40817;51.520;9.954;2023-05-10T04:17:57;3.97;;;3.33;;
11998;SDS011;40817;51.520;9.954;2023-05-10T04:20:24;5.72;;;4.30;;
11998;SDS011;40817;51.520;9.954;2023-05-10T04:22:52;5.75;;;3.83;;
11998;SDS011;40817;51.520;9.954;2023-05-10T04:25:19;5.80;;;4.00;;
11998;SDS011;40817;51.520;9.954;2023-05-10T04:27:47;6.00;;;4.20;;
11998;SDS011;40817;51.520;9.954;2023-05-10T04:30:17;5.15;;;3.78;;
11998;SDS011;40817;51.520;9.954;2023-05-10T04:32:45;5.38;;;3.80;;
11998;SDS011;40817;51.520;9.954;2023-05-10T04:35:14;5.72;;;3.90;;
11998;SDS011;40817;51.520;9.954;2023-05-10T04:37:47;8.07;;;4.60;;
11998;SDS011;40817;51.520;9.954;2023-05-10T04:40:15;5.68;;;4.32;;
11998;SDS011;40817;51.520;9.954;2023-05-10T04:42:43;5.78;;;4.25;;
11998;SDS011;40817;51.520;9.954;2023-05-10T04:45:11;6.63;;;4.45;;
11998;SDS011;40817;51.520;9.954;2023-05-10T04:47:41;8.32;;;4.57;;
11998;SDS011;40817;51.520;9.954;2023-05-10T04:50:08;8.88;;;4.72;;
11998;SDS011;40817;51.520;9.954;2023-05-10T04:52:36;6.30;;;4.55;;
11998;SDS011;40817;51.520;9.954;2023-05-10T04:55:04;7.40;;;5.28;;
11998;SDS011;40817;51.520;9.954;2023-05-10T04:57:34;9.85;;;5.32;;
11998;SDS011;40817;51.520;9.954;2023-05-10T05:00:02;6.53;;;4.60;;
11998;SDS011;40817;51.520;9.954;2023-05-10T05:02:32;6.10;;;4.55;;
11998;SDS011;40817;51.520;9.954;2023-05-10T05:05:01;6.80;;;4.63;;
11998;SDS011;40817;51.520;9.954;2023-05-10T05:07:28;7.35;;;5.10;;
11998;SDS011;40817;51.520;9.954;2023-05-10T05:09:56;7.18;;;5.20;;
11998;SDS011;40817;51.520;9.954;2023-05-10T05:12:24;5.88;;;4.60;;
11998;SDS011;40817;51.520;9.954;2023-05-10T05:14:51;5.50;;;4.60;;
11998;SDS011;40817;51.520;9.954;2023-05-10T05:17:19;6.15;;;4.75;;
11998;SDS011;40817;51.520;9.954;2023-05-10T05:19:46;5.80;;;4.15;;
11998;SDS011;40817;51.520;9.954;2023-05-10T05:22:15;5.97;;;4.55;;
11998;SDS011;40817;51.520;9.954;2023-05-10T05:24:45;6.47;;;4.60;;
11998;SDS011;40817;51.520;9.954;2023-05-10T05:27:12;6.60;;;4.20;;
11998;SDS011;40817;51.520;9.954;2023-05-10T05:29:40;7.90;;;4.75;;
11998;SDS011;40817;51.520;9.954;2023-05-10T05:32:07;6.38;;;4.68;;
11998;SDS011;40817;51.520;9.954;2023-05-10T05:34:36;6.07;;;4.97;;
11998;SDS011;40817;51.520;9.954;2023-05-10T05:37:03;6.65;;;4.60;;
11998;SDS011;40817;51.520;9.954;2023-05-10T05:39:32;8.45;;;4.78;;
11998;SDS011;40817;51.520;9.954;2023-05-10T05:42:02;5.55;;;4.40;;
11998;SDS011;40817;51.520;9.954;2023-05-10T05:44:30;5.35;;;3.60;;
11998;SDS011;40817;51.520;9.954;2023-05-10T05:46:58;4.80;;;3.60;;
11998;SDS011;40817;51.520;9.954;2023-05-10T05:49:25;4.55;;;3.65;;
11998;SDS011;40817;51.520;9.954;2023-05-10T05:51:53;5.50;;;3.92;;
11998;SDS011;40817;51.520;9.954;2023-05-10T05:54:20;5.15;;;3.47;;
11998;SDS011;40817;51.520;9.954;2023-05-10T05:56:49;4.78;;;3.70;;
11998;SDS011;40817;51.520;9.954;2023-05-10T05:59:17;5.15;;;3.60;;
11998;SDS011;40817;51.520;9.954;2023-05-10T06:01:45;5.05;;;3.63;;
11998;SDS011;40817;51.520;9.954;2023-05-10T06:04:12;4.57;;;3.50;;
11998;SDS011;40817;51.520;9.954;2023-05-10T06:06:40;5.25;;;4.00;;
11998;SDS011;40817;51.520;9.954;2023-05-10T06:09:08;5.90;;;3.72;;
11998;SDS011;40817;51.520;9.954;2023-05-10T06:11:35;6.03;;;3.83;;
11998;SDS011;40817;51.520;9.954;2023-05-10T06:14:05;6.45;;;4.38;;
11998;SDS011;40817;51.520;9.954;2023-05-10T06:16:33;5.82;;;3.40;;
11998;SDS011;40817;51.520;9.954;2023-05-10T06:19:01;5.85;;;3.72;;
11998;SDS011;40817;51.520;9.954;2023-05-10T06:21:29;5.00;;;3.92;;
11998;SDS011;40817;51.520;9.954;2023-05-10T06:23:57;4.68;;;3.40;;
11998;SDS011;40817;51.520;9.954;2023-05-10T06:26:24;4.55;;;3.50;;
11998;SDS011;40817;51.520;9.954;2023-05-10T06:28:52;4.45;;;3.70;;
11998;SDS011;40817;51.520;9.954;2023-05-10T06:31:21;9.02;;;3.85;;
11998;SDS011;40817;51.520;9.954;2023-05-10T06:33:49;4.55;;;3.55;;
11998;SDS011;40817;51.520;9.954;2023-05-10T06:36:16;5.20;;;3.80;;
11998;SDS011;40817;51.520;9.954;2023-05-10T06:38:44;4.43;;;3.67;;
11998;SDS011;40817;51.520;9.954;2023-05-10T06:41:11;4.85;;;3.35;;
11998;SDS011;40817;51.520;9.954;2023-05-10T06:43:39;4.40;;;3.10;;
11998;SDS011;40817;51.520;9.954;2023-05-10T06:46:08;4.72;;;3.17;;
11998;SDS011;40817;51.520;9.954;2023-05-10T06:48:37;5.70;;;3.85;;
11998;SDS011;40817;51.520;9.954;2023-05-10T06:51:04;5.32;;;3.25;;
11998;SDS011;40817;51.520;9.954;2023-05-10T06:53:32;5.22;;;3.15;;
11998;SDS011;40817;51.520;9.954;2023-05-10T06:56:00;4.88;;;2.55;;
11998;SDS011;40817;51.520;9.954;2023-05-10T06:58:28;4.10;;;2.25;;
11998;SDS011;40817;51.520;9.954;2023-05-10T07:01:01;4.10;;;2.55;;
11998;SDS011;40817;51.520;9.954;2023-05-10T07:03:29;3.92;;;2.20;;
11998;SDS011;40817;51.520;9.954;2023-05-10T07:06:02;3.75;;;2.10;;
11998;SDS011;40817;51.520;9.954;2023-05-10T07:08:32;2.47;;;1.70;;
11998;SDS011;40817;51.520;9.954;2023-05-10T07:11:01;4.30;;;2.40;;
11998;SDS011;40817;51.520;9.954;2023-05-10T07:13:30;1.90;;;1.30;;
11998;SDS011;40817;51.520;9.954;2023-05-10T07:15:58;2.13;;;1.20;;
11998;SDS011;40817;51.520;9.954;2023-05-10T07:18:27;1.80;;;1.00;;
11998;SDS011;40817;51.520;9.954;2023-05-10T07:20:56;0.82;;;0.50;;
11998;SDS011;40817;51.520;9.954;2023-05-10T07:23:25;0.50;;;0.40;;
11998;SDS011;40817;51.520;9.954;2023-05-10T07:25:53;0.60;;;0.43;;
11998;SDS011;40817;51.520;9.954;2023-05-10T07:28:22;1.73;;;0.70;;
11998;SDS011;40817;51.520;9.954;2023-05-10T07:30:50;1.73;;;0.50;;
11998;SDS011;40817;51.520;9.954;2023-05-10T07:33:18;1.98;;;0.65;;
11998;SDS011;40817;51.520;9.954;2023-05-10T07:35:46;0.80;;;0.43;;
11998;SDS011;40817;51.520;9.954;2023-05-10T07:38:13;0.70;;;0.40;;
11998;SDS011;40817;51.520;9.954;2023-05-10T07:40:42;0.77;;;0.50;;
11998;SDS011;40817;51.520;9.954;2023-05-10T07:43:10;0.73;;;0.40;;
11998;SDS011;40817;51.520;9.954;2023-05-10T07:45:37;0.90;;;0.50;;
11998;SDS011;40817;51.520;9.954;2023-05-10T07:48:05;0.82;;;0.30;;
11998;SDS011;40817;51.520;9.954;2023-05-10T07:50:33;0.55;;;0.40;;
11998;SDS011;40817;51.520;9.954;2023-05-10T07:53:00;2.15;;;0.50;;
11998;SDS011;40817;51.520;9.954;2023-05-10T07:55:27;0.90;;;0.40;;
11998;SDS011;40817;51.520;9.954;2023-05-10T07:57:56;0.40;;;0.30;;
11998;SDS011;40817;51.520;9.954;2023-05-10T08:00:26;0.75;;;0.40;;
11998;SDS011;40817;51.520;9.954;2023-05-10T08:02:54;0.80;;;0.30;;
11998;SDS011;40817;51.520;9.954;2023-05-10T08:05:21;0.57;;;0.40;;
11998;SDS011;40817;51.520;9.954;2023-05-10T08:07:49;0.70;;;0.60;;
11998;SDS011;40817;51.520;9.954;2023-05-10T08:10:17;2.17;;;0.40;;
11998;SDS011;40817;51.520;9.954;2023-05-10T08:12:44;0.95;;;0.40;;
11998;SDS011;40817;51.520;9.954;2023-05-10T08:15:13;0.70;;;0.43;;
11998;SDS011;40817;51.520;9.954;2023-05-10T08:17:41;0.70;;;0.50;;
11998;SDS011;40817;51.520;9.954;2023-05-10T08:20:09;1.10;;;0.40;;
11998;SDS011;40817;51.520;9.954;2023-05-10T08:22:38;0.88;;;0.40;;
11998;SDS011;40817;51.520;9.954;2023-05-10T08:25:06;0.77;;;0.30;;
11998;SDS011;40817;51.520;9.954;2023-05-10T08:27:35;1.33;;;0.50;;
11998;SDS011;40817;51.520;9.954;2023-05-10T08:30:02;0.93;;;0.57;;
11998;SDS011;40817;51.520;9.954;2023-05-10T08:32:33;0.40;;;0.30;;
11998;SDS011;40817;51.520;9.954;2023-05-10T08:35:03;1.88;;;0.50;;
11998;SDS011;40817;51.520;9.954;2023-05-10T08:37:31;2.22;;;0.50;;
11998;SDS011;40817;51.520;9.954;2023-05-10T08:39:59;0.85;;;0.50;;
11998;SDS011;40817;51.520;9.954;2023-05-10T08:42:28;3.55;;;0.90;;
11998;SDS011;40817;51.520;9.954;2023-05-10T08:45:00;1.63;;;0.60;;
11998;SDS011;40817;51.520;9.954;2023-05-10T08:47:32;2.22;;;0.60;;
11998;SDS011;40817;51.520;9.954;2023-05-10T08:50:03;1.67;;;0.70;;
11998;SDS011;40817;51.520;9.954;2023-05-10T08:52:33;2.38;;;0.80;;
11998;SDS011;40817;51.520;9.954;2023-05-10T08:55:06;1.45;;;0.80;;
11998;SDS011;40817;51.520;9.954;2023-05-10T08:57:35;1.88;;;0.60;;
11998;SDS011;40817;51.520;9.954;2023-05-10T09:00:03;1.00;;;0.60;;
11998;SDS011;40817;51.520;9.954;2023-05-10T09:02:35;0.57;;;0.40;;
11998;SDS011;40817;51.520;9.954;2023-05-10T09:05:04;1.52;;;0.50;;
11998;SDS011;40817;51.520;9.954;2023-05-10T09:07:35;3.17;;;0.70;;
11998;SDS011;40817;51.520;9.954;2023-05-10T09:10:03;1.90;;;0.50;;
11998;SDS011;40817;51.520;9.954;2023-05-10T09:12:33;1.95;;;0.60;;
11998;SDS011;40817;51.520;9.954;2023-05-10T09:15:01;1.50;;;0.68;;
11998;SDS011;40817;51.520;9.954;2023-05-10T09:17:30;1.38;;;0.70;;
11998;SDS011;40817;51.520;9.954;2023-05-10T09:19:59;1.30;;;0.68;;
11998;SDS011;40817;51.520;9.954;2023-05-10T09:22:29;1.70;;;0.70;;
11998;SDS011;40817;51.520;9.954;2023-05-10T09:25:03;1.10;;;0.40;;
11998;SDS011;40817;51.520;9.954;2023-05-10T09:27:34;1.13;;;0.75;;
11998;SDS011;40817;51.520;9.954;2023-05-10T09:30:02;0.60;;;0.40;;
11998;SDS011;40817;51.520;9.954;2023-05-10T09:32:38;1.73;;;0.50;;
11998;SDS011;40817;51.520;9.954;2023-05-10T09:35:10;0.85;;;0.60;;
11998;SDS011;40817;51.520;9.954;2023-05-10T09:37:41;1.00;;;0.60;;
11998;SDS011;40817;51.520;9.954;2023-05-10T09:40:12;0.80;;;0.57;;
11998;SDS011;40817;51.520;9.954;2023-05-10T09:42:42;1.00;;;0.45;;
11998;SDS011;40817;51.520;9.954;2023-05-10T09:45:20;3.15;;;0.80;;
11998;SDS011;40817;51.520;9.954;2023-05-10T09:47:49;3.40;;;0.70;;
11998;SDS011;40817;51.520;9.954;2023-05-10T09:50:18;0.98;;;0.60;;
11998;SDS011;40817;51.520;9.954;2023-05-10T09:52:48;1.65;;;0.57;;
11998;SDS011;40817;51.520;9.954;2023-05-10T09:55:18;0.82;;;0.50;;
11998;SDS011;40817;51.520;9.954;2023-05-10T09:57:48;1.60;;;0.70;;
11998;SDS011;40817;51.520;9.954;2023-05-10T10:00:26;2.33;;;0.60;;
11998;SDS011;40817;51.520;9.954;2023-05-10T10:02:55;1.70;;;0.50;;
11998;SDS011;40817;51.520;9.954;2023-05-10T10:05:29;1.05;;;0.60;;
11998;SDS011;40817;51.520;9.954;2023-05-10T10:07:57;0.50;;;0.30;;
11998;SDS011;40817;51.520;9.954;2023-05-10T10:10:27;0.82;;;0.45;;
11998;SDS011;40817;51.520;9.954;2023-05-10T10:12:55;1.17;;;0.52;;
11998;SDS011;40817;51.520;9.954;2023-05-10T10:15:23;1.25;;;0.50;;
11998;SDS011;40817;51.520;9.954;2023-05-10T10:17:51;1.42;;;0.47;;
11998;SDS011;40817;51.520;9.954;2023-05-10T10:20:21;3.45;;;0.52;;
11998;SDS011;40817;51.520;9.954;2023-05-10T10:22:53;2.05;;;0.68;;
11998;SDS011;40817;51.520;9.954;2023-05-10T10:25:21;2.90;;;0.60;;
11998;SDS011;40817;51.520;9.954;2023-05-10T10:27:55;1.38;;;0.50;;
11998;SDS011;40817;51.520;9.954;2023-05-10T10:30:41;1.17;;;0.55;;
11998;SDS011;40817;51.520;9.954;2023-05-10T10:36:17;0.88;;;0.55;;
11998;SDS011;40817;51.520;9.954;2023-05-10T10:38:58;0.80;;;0.60;;
11998;SDS011;40817;51.520;9.954;2023-05-10T10:41:29;0.60;;;0.30;;
11998;SDS011;40817;51.520;9.954;2023-05-10T10:47:00;1.38;;;0.40;;
11998;SDS011;40817;51.520;9.954;2023-05-10T10:49:42;0.85;;;0.45;;
11998;SDS011;40817;51.520;9.954;2023-05-10T10:52:23;1.27;;;0.43;;
11998;SDS011;40817;51.520;9.954;2023-05-10T10:55:00;1.58;;;0.75;;
11998;SDS011;40817;51.520;9.954;2023-05-10T10:57:32;2.25;;;0.63;;
11998;SDS011;40817;51.520;9.954;2023-05-10T11:00:17;0.82;;;0.55;;
11998;SDS011;40817;51.520;9.954;2023-05-10T11:02:53;1.15;;;0.73;;
11998;SDS011;40817;51.520;9.954;2023-05-10T11:05:27;1.80;;;0.60;;
11998;SDS011;40817;51.520;9.954;2023-05-10T11:08:18;1.35;;;0.60;;
11998;SDS011;40817;51.520;9.954;2023-05-10T11:11:03;1.95;;;0.80;;
11998;SDS011;40817;51.520;9.954;2023-05-10T11:13:34;3.60;;;0.80;;
11998;SDS011;40817;51.520;9.954;2023-05-10T11:16:10;1.52;;;0.90;;
11998;SDS011;40817;51.520;9.954;2023-05-10T11:18:51;4.57;;;1.00;;
11998;SDS011;40817;51.520;9.954;2023-05-10T11:21:30;2.45;;;0.73;;
11998;SDS011;40817;51.520;9.954;2023-05-10T11:23:59;3.45;;;0.73;;
11998;SDS011;40817;51.520;9.954;2023-05-10T11:26:33;1.67;;;0.80;;
11998;SDS011;40817;51.520;9.954;2023-05-10T11:29:02;1.15;;;0.60;;
11998;SDS011;40817;51.520;9.954;2023-05-10T11:31:30;0.88;;;0.50;;
11998;SDS011;40817;51.520;9.954;2023-05-10T11:33:58;2.53;;;0.80;;
11998;SDS011;40817;51.520;9.954;2023-05-10T11:36:28;2.08;;;0.73;;
11998;SDS011;40817;51.520;9.954;2023-05-10T11:39:00;2.17;;;0.63;;
11998;SDS011;40817;51.520;9.954;2023-05-10T11:41:28;1.33;;;0.50;;
11998;SDS011;40817;51.520;9.954;2023-05-10T11:43:58;1.10;;;0.38;;
11998;SDS011;40817;51.520;9.954;2023-05-10T11:46:27;1.08;;;0.70;;
11998;SDS011;40817;51.520;9.954;2023-05-10T11:48:55;0.70;;;0.50;;
11998;SDS011;40817;51.520;9.954;2023-05-10T11:51:33;0.95;;;0.50;;
11998;SDS011;40817;51.520;9.954;2023-05-10T11:54:05;1.80;;;0.70;;
11998;SDS011;40817;51.520;9.954;2023-05-10T11:56:35;0.43;;;0.40;;
11998;SDS011;40817;51.520;9.954;2023-05-10T11:59:05;0.60;;;0.50;;
11998;SDS011;40817;51.520;9.954;2023-05-10T12:01:34;1.23;;;0.60;;
11998;SDS011;40817;51.520;9.954;2023-05-10T12:04:02;1.38;;;0.52;;
11998;SDS011;40817;51.520;9.954;2023-05-10T12:06:31;2.28;;;0.70;;
11998;SDS011;40817;51.520;9.954;2023-05-10T12:09:05;0.75;;;0.60;;
11998;SDS011;40817;51.520;9.954;2023-05-10T12:11:36;1.35;;;0.70;;
11998;SDS011;40817;51.520;9.954;2023-05-10T12:14:08;2.53;;;1.08;;
11998;SDS011;40817;51.520;9.954;2023-05-10T12:16:36;3.88;;;1.00;;
11998;SDS011;40817;51.520;9.954;2023-05-10T12:19:04;1.08;;;0.65;;
11998;SDS011;40817;51.520;9.954;2023-05-10T12:21:33;1.98;;;0.82;;
11998;SDS011;40817;51.520;9.954;2023-05-10T12:24:01;1.33;;;0.85;;
11998;SDS011;40817;51.520;9.954;2023-05-10T12:26:32;2.08;;;1.00;;
11998;SDS011;40817;51.520;9.954;2023-05-10T12:29:16;2.08;;;1.10;;
11998;SDS011;40817;51.520;9.954;2023-05-10T12:31:48;5.00;;;1.70;;
11998;SDS011;40817;51.520;9.954;2023-05-10T12:34:22;2.40;;;1.60;;
11998;SDS011;40817;51.520;9.954;2023-05-10T12:36:57;2.60;;;1.85;;
11998;SDS011;40817;51.520;9.954;2023-05-10T12:39:25;2.80;;;1.58;;
11998;SDS011;40817;51.520;9.954;2023-05-10T12:42:04;2.45;;;1.70;;
11998;SDS011;40817;51.520;9.954;2023-05-10T12:44:33;2.97;;;2.00;;
11998;SDS011;40817;51.520;9.954;2023-05-10T12:47:01;4.72;;;1.90;;
11998;SDS011;40817;51.520;9.954;2023-05-10T12:49:29;4.90;;;2.50;;
11998;SDS011;40817;51.520;9.954;2023-05-10T12:51:57;4.18;;;1.83;;
11998;SDS011;40817;51.520;9.954;2023-05-10T12:54:25;4.13;;;2.08;;
11998;SDS011;40817;51.520;9.954;2023-05-10T12:56:53;3.15;;;2.38;;
11998;SDS011;40817;51.520;9.954;2023-05-10T12:59:21;3.10;;;1.90;;
11998;SDS011;40817;51.520;9.954;2023-05-10T13:01:50;4.40;;;2.15;;
11998;SDS011;40817;51.520;9.954;2023-05-10T13:04:18;4.82;;;2.08;;
11998;SDS011;40817;51.520;9.954;2023-05-10T13:06:46;3.67;;;2.50;;
11998;SDS011;40817;51.520;9.954;2023-05-10T13:09:14;3.25;;;2.10;;
11998;SDS011;40817;51.520;9.954;2023-05-10T13:11:41;3.55;;;2.30;;
11998;SDS011;40817;51.520;9.954;2023-05-10T13:14:09;4.07;;;2.40;;
11998;SDS011;40817;51.520;9.954;2023-05-10T13:16:37;3.50;;;2.30;;
11998;SDS011;40817;51.520;9.954;2023-05-10T13:19:06;4.03;;;2.50;;
11998;SDS011;40817;51.520;9.954;2023-05-10T13:21:34;7.07;;;3.08;;
11998;SDS011;40817;51.520;9.954;2023-05-10T13:24:01;4.88;;;2.80;;
11998;SDS011;40817;51.520;9.954;2023-05-10T13:26:29;5.20;;;2.72;;
11998;SDS011;40817;51.520;9.954;2023-05-10T13:28:57;3.25;;;2.47;;
11998;SDS011;40817;51.520;9.954;2023-05-10T13:31:26;4.47;;;2.83;;
11998;SDS011;40817;51.520;9.954;2023-05-10T13:33:53;4.05;;;2.75;;
11998;SDS011;40817;51.520;9.954;2023-05-10T13:36:23;3.20;;;2.60;;
11998;SDS011;40817;51.520;9.954;2023-05-10T13:38:50;3.67;;;2.53;;
11998;SDS011;40817;51.520;9.954;2023-05-10T13:41:20;4.15;;;2.20;;
11998;SDS011;40817;51.520;9.954;2023-05-10T13:43:48;4.10;;;3.10;;
11998;SDS011;40817;51.520;9.954;2023-05-10T13:46:16;4.15;;;2.63;;
11998;SDS011;40817;51.520;9.954;2023-05-10T13:48:44;3.53;;;2.70;;
11998;SDS011;40817;51.520;9.954;2023-05-10T13:51:12;5.30;;;3.10;;
11998;SDS011;40817;51.520;9.954;2023-05-10T13:53:43;5.25;;;3.25;;
11998;SDS011;40817;51.520;9.954;2023-05-10T13:56:12;4.80;;;3.40;;
11998;SDS011;40817;51.520;9.954;2023-05-10T13:58:40;3.40;;;2.72;;
11998;SDS011;40817;51.520;9.954;2023-05-10T14:01:08;3.80;;;2.55;;
11998;SDS011;40817;51.520;9.954;2023-05-10T14:03:35;3.13;;;2.55;;
11998;SDS011;40817;51.520;9.954;2023-05-10T14:06:03;3.05;;;2.00;;
11998;SDS011;40817;51.520;9.954;2023-05-10T14:08:32;4.82;;;2.33;;
11998;SDS011;40817;51.520;9.954;2023-05-10T14:11:02;3.20;;;2.42;;
11998;SDS011;40817;51.520;9.954;2023-05-10T14:13:30;6.53;;;3.33;;
11998;SDS011;40817;51.520;9.954;2023-05-10T14:15:57;4.97;;;3.35;;
11998;SDS011;40817;51.520;9.954;2023-05-10T14:18:26;5.22;;;2.70;;
11998;SDS011;40817;51.520;9.954;2023-05-10T14:20:54;4.35;;;3.05;;
11998;SDS011;40817;51.520;9.954;2023-05-10T14:23:21;5.32;;;3.17;;
11998;SDS011;40817;51.520;9.954;2023-05-10T14:25:51;3.88;;;2.90;;
11998;SDS011;40817;51.520;9.954;2023-05-10T14:28:20;4.57;;;3.42;;
11998;SDS011;40817;51.520;9.954;2023-05-10T14:30:48;5.60;;;3.20;;
11998;SDS011;40817;51.520;9.954;2023-05-10T14:33:16;4.72;;;2.85;;
11998;SDS011;40817;51.520;9.954;2023-05-10T14:35:44;5.35;;;3.30;;
11998;SDS011;40817;51.520;9.954;2023-05-10T14:38:12;6.10;;;3.70;;
11998;SDS011;40817;51.520;9.954;2023-05-10T14:40:40;5.70;;;3.83;;
11998;SDS011;40817;51.520;9.954;2023-05-10T14:43:08;5.68;;;3.47;;
11998;SDS011;40817;51.520;9.954;2023-05-10T14:45:37;7.22;;;4.05;;
11998;SDS011;40817;51.520;9.954;2023-05-10T14:48:05;9.40;;;4.30;;
11998;SDS011;40817;51.520;9.954;2023-05-10T14:50:36;6.40;;;4.07;;
11998;SDS011;40817;51.520;9.954;2023-05-10T14:53:05;5.55;;;3.70;;
11998;SDS011;40817;51.520;9.954;2023-05-10T14:55:32;6.18;;;3.67;;
11998;SDS011;40817;51.520;9.954;2023-05-10T14:58:01;5.80;;;3.65;;
11998;SDS011;40817;51.520;9.954;2023-05-10T15:00:29;6.35;;;3.50;;
11998;SDS011;40817;51.520;9.954;2023-05-10T15:02:58;4.32;;;3.08;;
11998;SDS011;40817;51.520;9.954;2023-05-10T15:05:26;5.95;;;3.63;;
11998;SDS011;40817;51.520;9.954;2023-05-10T15:07:53;5.55;;;3.30;;
11998;SDS011;40817;51.520;9.954;2023-05-10T15:10:21;6.30;;;3.22;;
11998;SDS011;40817;51.520;9.954;2023-05-10T15:12:49;4.90;;;2.92;;
11998;SDS011;40817;51.520;9.954;2023-05-10T15:15:17;3.67;;;2.28;;